sensor_id;sensor_type;location;lat;lon;timestamp;P1;durP1;ratioP1;P2;durP2;ratioP2
20150;SDS011;10236;49.638;6.830;2022-10-16T00:01:09;4.03;;;3.20;;
20150;SDS011;10236;49.638;6.830;2022-10-16T00:03:36;7.43;;;2.77;;
20150;SDS011;10236;49.638;6.830;2022-10-16T00:06:02;3.37;;;2.43;;
20150;SDS011;10236;49.638;6.830;2022-10-16T00:08:28;1.80;;;1.50;;
20150;SDS011;10236;49.638;6.830;2022-10-16T00:11:01;1.70;;;1.53;;
20150;SDS011;10236;49.638;6.830;2022-10-16T00:13:28;4.33;;;1.93;;
20150;SDS011;10236;49.638;6.830;2022-10-16T00:15:55;3.47;;;2.00;;
20150;SDS011;10236;49.638;6.830;2022-10-16T00:18:21;2.47;;;1.30;;
20150;SDS011;10236;49.638;6.830;2022-10-16T00:20:47;1.10;;;0.80;;
20150;SDS011;10236;49.638;6.830;2022-10-16T00:23:13;2.60;;;2.20;;
20150;SDS011;10236;49.638;6.830;2022-10-16T00:25:39;6.00;;;3.10;;
20150;SDS011;10236;49.638;6.830;2022-10-16T00:28:05;50.17;;;16.03;;
20150;SDS011;10236;49.638;6.830;2022-10-16T00:30:31;72.83;;;21.33;;
20150;SDS011;10236;49.638;6.830;2022-10-16T00:32:57;3.83;;;1.90;;
20150;SDS011;10236;49.638;6.830;2022-10-16T00:35:23;4.17;;;3.77;;
20150;SDS011;10236;49.638;6.830;2022-10-16T00:37:49;3.50;;;3.07;;
20150;SDS011;10236;49.638;6.830;2022-10-16T00:40:15;4.97;;;3.50;;
20150;SDS011;10236;49.638;6.830;2022-10-16T00:42:41;83.30;;;26.40;;
20150;SDS011;10236;49.638;6.830;2022-10-16T00:45:08;50.10;;;16.53;;
20150;SDS011;10236;49.638;6.830;2022-10-16T00:47:38;14.03;;;4.90;;
20150;SDS011;10236;49.638;6.830;2022-10-16T00:50:09;12.13;;;4.80;;
20150;SDS011;10236;49.638;6.830;2022-10-16T00:52:37;16.67;;;6.00;;
20150;SDS011;10236;49.638;6.830;2022-10-16T00:55:04;4.00;;;2.20;;
20150;SDS011;10236;49.638;6.830;2022-10-16T00:57:31;45.27;;;12.13;;
20150;SDS011;10236;49.638;6.830;2022-10-16T00:59:57;66.07;;;17.20;;
20150;SDS011;10236;49.638;6.830;2022-10-16T01:02:23;7.63;;;4.80;;
20150;SDS011;10236;49.638;6.830;2022-10-16T01:04:50;2.60;;;2.00;;
20150;SDS011;10236;49.638;6.830;2022-10-16T01:18:08;2.13;;;1.07;;
20150;SDS011;10236;49.638;6.830;2022-10-16T01:20:38;3.10;;;1.00;;
20150;SDS011;10236;49.638;6.830;2022-10-16T01:25:36;3.20;;;1.00;;
20150;SDS011;10236;49.638;6.830;2022-10-16T01:28:05;1.47;;;0.60;;
20150;SDS011;10236;49.638;6.830;2022-10-16T01:30:32;3.40;;;0.90;;
20150;SDS011;10236;49.638;6.830;2022-10-16T01:33:01;1.83;;;0.70;;
20150;SDS011;10236;49.638;6.830;2022-10-16T01:35:32;4.13;;;0.70;;
20150;SDS011;10236;49.638;6.830;2022-10-16T01:38:19;1.87;;;0.80;;
20150;SDS011;10236;49.638;6.830;2022-10-16T01:40:47;1.20;;;0.70;;
20150;SDS011;10236;49.638;6.830;2022-10-16T01:43:16;0.53;;;0.50;;
20150;SDS011;10236;49.638;6.830;2022-10-16T01:45:43;2.20;;;0.70;;
20150;SDS011;10236;49.638;6.830;2022-10-16T01:48:11;1.73;;;0.60;;
20150;SDS011;10236;49.638;6.830;2022-10-16T01:50:38;2.40;;;0.77;;
20150;SDS011;10236;49.638;6.830;2022-10-16T01:53:05;0.83;;;0.60;;
20150;SDS011;10236;49.638;6.830;2022-10-16T01:55:33;0.63;;;0.60;;
20150;SDS011;10236;49.638;6.830;2022-10-16T01:58:02;2.23;;;0.70;;
20150;SDS011;10236;49.638;6.830;2022-10-16T02:00:29;2.33;;;1.00;;
20150;SDS011;10236;49.638;6.830;2022-10-16T02:02:55;2.80;;;0.60;;
20150;SDS011;10236;49.638;6.830;2022-10-16T02:05:24;2.30;;;0.50;;
20150;SDS011;10236;49.638;6.830;2022-10-16T02:07:51;2.50;;;0.50;;
20150;SDS011;10236;49.638;6.830;2022-10-16T02:10:17;2.60;;;0.60;;
20150;SDS011;10236;49.638;6.830;2022-10-16T02:12:45;1.00;;;0.60;;
20150;SDS011;10236;49.638;6.830;2022-10-16T02:15:12;3.43;;;1.00;;
20150;SDS011;10236;49.638;6.830;2022-10-16T02:17:38;1.30;;;0.57;;
20150;SDS011;10236;49.638;6.830;2022-10-16T02:20:04;1.90;;;0.50;;
20150;SDS011;10236;49.638;6.830;2022-10-16T02:22:35;4.70;;;0.60;;
20150;SDS011;10236;49.638;6.830;2022-10-16T02:27:43;0.77;;;0.50;;
20150;SDS011;10236;49.638;6.830;2022-10-16T02:30:13;1.07;;;0.60;;
20150;SDS011;10236;49.638;6.830;2022-10-16T02:32:40;0.87;;;0.70;;
20150;SDS011;10236;49.638;6.830;2022-10-16T02:35:07;30.90;;;12.07;;
20150;SDS011;10236;49.638;6.830;2022-10-16T02:37:34;16.73;;;7.73;;
20150;SDS011;10236;49.638;6.830;2022-10-16T02:40:01;67.30;;;25.77;;
20150;SDS011;10236;49.638;6.830;2022-10-16T02:42:38;5.37;;;2.23;;
20150;SDS011;10236;49.638;6.830;2022-10-16T02:45:05;2.70;;;0.90;;
20150;SDS011;10236;49.638;6.830;2022-10-16T02:47:31;0.70;;;0.70;;
20150;SDS011;10236;49.638;6.830;2022-10-16T02:49:57;0.80;;;0.80;;
20150;SDS011;10236;49.638;6.830;2022-10-16T02:52:23;1.13;;;0.80;;
20150;SDS011;10236;49.638;6.830;2022-10-16T02:54:49;0.90;;;0.70;;
20150;SDS011;10236;49.638;6.830;2022-10-16T02:57:15;1.83;;;0.77;;
20150;SDS011;10236;49.638;6.830;2022-10-16T02:59:41;2.10;;;0.50;;
20150;SDS011;10236;49.638;6.830;2022-10-16T03:02:07;1.83;;;0.70;;
20150;SDS011;10236;49.638;6.830;2022-10-16T03:04:33;1.10;;;0.50;;
20150;SDS011;10236;49.638;6.830;2022-10-16T03:06:59;0.83;;;0.60;;
20150;SDS011;10236;49.638;6.830;2022-10-16T03:09:25;1.77;;;0.50;;
20150;SDS011;10236;49.638;6.830;2022-10-16T03:11:51;1.07;;;0.60;;
20150;SDS011;10236;49.638;6.830;2022-10-16T03:14:17;1.37;;;0.50;;
20150;SDS011;10236;49.638;6.830;2022-10-16T03:16:43;1.07;;;0.50;;
20150;SDS011;10236;49.638;6.830;2022-10-16T03:19:09;0.50;;;0.40;;
20150;SDS011;10236;49.638;6.830;2022-10-16T03:21:35;1.43;;;0.40;;
20150;SDS011;10236;49.638;6.830;2022-10-16T03:24:01;0.70;;;0.40;;
20150;SDS011;10236;49.638;6.830;2022-10-16T03:26:27;0.87;;;0.47;;
20150;SDS011;10236;49.638;6.830;2022-10-16T03:28:53;2.20;;;0.57;;
20150;SDS011;10236;49.638;6.830;2022-10-16T03:31:19;2.00;;;0.87;;
20150;SDS011;10236;49.638;6.830;2022-10-16T03:33:45;2.93;;;0.70;;
20150;SDS011;10236;49.638;6.830;2022-10-16T03:36:10;0.80;;;0.60;;
20150;SDS011;10236;49.638;6.830;2022-10-16T03:38:36;1.37;;;0.70;;
20150;SDS011;10236;49.638;6.830;2022-10-16T03:41:02;2.63;;;0.80;;
20150;SDS011;10236;49.638;6.830;2022-10-16T03:43:29;2.37;;;1.00;;
20150;SDS011;10236;49.638;6.830;2022-10-16T03:45:55;1.70;;;0.80;;
20150;SDS011;10236;49.638;6.830;2022-10-16T03:48:21;1.10;;;0.67;;
20150;SDS011;10236;49.638;6.830;2022-10-16T03:50:47;1.50;;;0.80;;
20150;SDS011;10236;49.638;6.830;2022-10-16T03:53:13;0.67;;;0.60;;
20150;SDS011;10236;49.638;6.830;2022-10-16T03:55:43;1.73;;;0.67;;
20150;SDS011;10236;49.638;6.830;2022-10-16T03:58:09;0.87;;;0.77;;
20150;SDS011;10236;49.638;6.830;2022-10-16T04:00:35;1.20;;;0.90;;
20150;SDS011;10236;49.638;6.830;2022-10-16T04:03:01;1.97;;;1.40;;
20150;SDS011;10236;49.638;6.830;2022-10-16T04:05:27;1.77;;;0.73;;
20150;SDS011;10236;49.638;6.830;2022-10-16T04:07:53;1.30;;;0.80;;
20150;SDS011;10236;49.638;6.830;2022-10-16T04:10:20;0.93;;;0.67;;
20150;SDS011;10236;49.638;6.830;2022-10-16T04:12:46;5.93;;;1.20;;
20150;SDS011;10236;49.638;6.830;2022-10-16T04:15:11;4.57;;;1.23;;
20150;SDS011;10236;49.638;6.830;2022-10-16T04:17:37;2.17;;;1.40;;
20150;SDS011;10236;49.638;6.830;2022-10-16T04:20:04;2.07;;;1.50;;
20150;SDS011;10236;49.638;6.830;2022-10-16T04:22:30;2.83;;;1.20;;
20150;SDS011;10236;49.638;6.830;2022-10-16T04:24:56;1.90;;;1.00;;
20150;SDS011;10236;49.638;6.830;2022-10-16T04:27:22;4.53;;;1.03;;
20150;SDS011;10236;49.638;6.830;2022-10-16T04:29:48;0.87;;;0.67;;
20150;SDS011;10236;49.638;6.830;2022-10-16T04:32:13;2.93;;;1.30;;
20150;SDS011;10236;49.638;6.830;2022-10-16T04:34:39;3.00;;;1.10;;
20150;SDS011;10236;49.638;6.830;2022-10-16T04:37:05;2.63;;;2.00;;
20150;SDS011;10236;49.638;6.830;2022-10-16T04:39:32;4.67;;;1.23;;
20150;SDS011;10236;49.638;6.830;2022-10-16T04:41:57;5.10;;;1.90;;
20150;SDS011;10236;49.638;6.830;2022-10-16T04:44:23;2.60;;;1.17;;
20150;SDS011;10236;49.638;6.830;2022-10-16T04:46:50;5.07;;;1.10;;
20150;SDS011;10236;49.638;6.830;2022-10-16T04:49:16;2.80;;;1.00;;
20150;SDS011;10236;49.638;6.830;2022-10-16T04:51:42;1.73;;;1.00;;
20150;SDS011;10236;49.638;6.830;2022-10-16T04:54:08;1.70;;;0.83;;
20150;SDS011;10236;49.638;6.830;2022-10-16T04:56:35;3.87;;;1.20;;
20150;SDS011;10236;49.638;6.830;2022-10-16T04:59:08;1.47;;;1.23;;
20150;SDS011;10236;49.638;6.830;2022-10-16T05:01:34;6.53;;;1.37;;
20150;SDS011;10236;49.638;6.830;2022-10-16T05:04:00;5.77;;;1.40;;
20150;SDS011;10236;49.638;6.830;2022-10-16T05:06:26;3.07;;;1.10;;
20150;SDS011;10236;49.638;6.830;2022-10-16T05:08:52;2.67;;;1.40;;
20150;SDS011;10236;49.638;6.830;2022-10-16T05:11:18;3.33;;;1.50;;
20150;SDS011;10236;49.638;6.830;2022-10-16T05:13:44;3.40;;;1.57;;
20150;SDS011;10236;49.638;6.830;2022-10-16T05:16:10;2.10;;;1.57;;
20150;SDS011;10236;49.638;6.830;2022-10-16T05:18:36;2.87;;;1.53;;
20150;SDS011;10236;49.638;6.830;2022-10-16T05:21:02;4.63;;;1.47;;
20150;SDS011;10236;49.638;6.830;2022-10-16T05:23:28;5.57;;;1.57;;
20150;SDS011;10236;49.638;6.830;2022-10-16T05:25:54;8.00;;;1.70;;
20150;SDS011;10236;49.638;6.830;2022-10-16T05:28:23;3.33;;;1.43;;
20150;SDS011;10236;49.638;6.830;2022-10-16T05:30:49;5.77;;;1.50;;
20150;SDS011;10236;49.638;6.830;2022-10-16T05:33:15;3.87;;;1.20;;
20150;SDS011;10236;49.638;6.830;2022-10-16T05:35:41;2.50;;;1.30;;
20150;SDS011;10236;49.638;6.830;2022-10-16T05:38:07;6.00;;;1.30;;
20150;SDS011;10236;49.638;6.830;2022-10-16T05:40:33;1.37;;;1.20;;
20150;SDS011;10236;49.638;6.830;2022-10-16T05:43:00;2.90;;;1.40;;
20150;SDS011;10236;49.638;6.830;2022-10-16T05:45:26;3.93;;;1.40;;
20150;SDS011;10236;49.638;6.830;2022-10-16T05:47:52;5.13;;;1.10;;
20150;SDS011;10236;49.638;6.830;2022-10-16T05:50:18;2.43;;;1.30;;
20150;SDS011;10236;49.638;6.830;2022-10-16T05:52:44;2.80;;;1.30;;
20150;SDS011;10236;49.638;6.830;2022-10-16T05:55:10;3.13;;;1.40;;
20150;SDS011;10236;49.638;6.830;2022-10-16T05:57:36;3.37;;;1.37;;
20150;SDS011;10236;49.638;6.830;2022-10-16T06:00:02;3.00;;;1.00;;
20150;SDS011;10236;49.638;6.830;2022-10-16T06:02:29;4.37;;;1.30;;
20150;SDS011;10236;49.638;6.830;2022-10-16T06:04:55;4.03;;;1.13;;
20150;SDS011;10236;49.638;6.830;2022-10-16T06:07:21;3.13;;;1.30;;
20150;SDS011;10236;49.638;6.830;2022-10-16T06:09:50;3.87;;;2.20;;
20150;SDS011;10236;49.638;6.830;2022-10-16T06:12:16;8.50;;;2.30;;
20150;SDS011;10236;49.638;6.830;2022-10-16T06:14:42;2.93;;;2.10;;
20150;SDS011;10236;49.638;6.830;2022-10-16T06:17:08;3.70;;;2.20;;
20150;SDS011;10236;49.638;6.830;2022-10-16T06:19:34;4.20;;;2.13;;
20150;SDS011;10236;49.638;6.830;2022-10-16T06:22:00;4.27;;;1.90;;
20150;SDS011;10236;49.638;6.830;2022-10-16T06:24:27;3.40;;;2.10;;
20150;SDS011;10236;49.638;6.830;2022-10-16T06:26:53;6.83;;;3.70;;
20150;SDS011;10236;49.638;6.830;2022-10-16T06:29:19;4.90;;;3.27;;
20150;SDS011;10236;49.638;6.830;2022-10-16T06:31:45;4.33;;;2.77;;
20150;SDS011;10236;49.638;6.830;2022-10-16T06:34:11;8.30;;;2.50;;
20150;SDS011;10236;49.638;6.830;2022-10-16T06:36:38;4.00;;;2.57;;
20150;SDS011;10236;49.638;6.830;2022-10-16T06:39:04;4.83;;;2.60;;
20150;SDS011;10236;49.638;6.830;2022-10-16T06:41:32;5.17;;;3.67;;
20150;SDS011;10236;49.638;6.830;2022-10-16T06:43:58;5.90;;;3.47;;
20150;SDS011;10236;49.638;6.830;2022-10-16T06:46:25;3.77;;;3.03;;
20150;SDS011;10236;49.638;6.830;2022-10-16T06:48:52;5.83;;;3.60;;
20150;SDS011;10236;49.638;6.830;2022-10-16T06:51:22;3.63;;;2.10;;
20150;SDS011;10236;49.638;6.830;2022-10-16T06:53:54;5.77;;;2.80;;
20150;SDS011;10236;49.638;6.830;2022-10-16T06:56:25;33.70;;;17.17;;
20150;SDS011;10236;49.638;6.830;2022-10-16T06:58:51;20.57;;;11.03;;
20150;SDS011;10236;49.638;6.830;2022-10-16T07:01:17;28.33;;;13.83;;
20150;SDS011;10236;49.638;6.830;2022-10-16T07:03:44;140.33;;;65.10;;
20150;SDS011;10236;49.638;6.830;2022-10-16T07:06:11;45.57;;;21.77;;
20150;SDS011;10236;49.638;6.830;2022-10-16T07:08:38;89.37;;;40.00;;
20150;SDS011;10236;49.638;6.830;2022-10-16T07:11:05;104.60;;;50.40;;
20150;SDS011;10236;49.638;6.830;2022-10-16T07:13:35;64.60;;;33.13;;
20150;SDS011;10236;49.638;6.830;2022-10-16T07:16:05;60.50;;;30.47;;
20150;SDS011;10236;49.638;6.830;2022-10-16T07:18:32;78.57;;;41.33;;
20150;SDS011;10236;49.638;6.830;2022-10-16T07:21:05;106.90;;;56.20;;
20150;SDS011;10236;49.638;6.830;2022-10-16T07:23:31;56.77;;;31.03;;
20150;SDS011;10236;49.638;6.830;2022-10-16T07:25:57;85.53;;;43.83;;
20150;SDS011;10236;49.638;6.830;2022-10-16T07:28:23;12.83;;;5.90;;
20150;SDS011;10236;49.638;6.830;2022-10-16T07:30:49;50.23;;;26.07;;
20150;SDS011;10236;49.638;6.830;2022-10-16T07:33:15;15.37;;;9.13;;
20150;SDS011;10236;49.638;6.830;2022-10-16T07:35:51;97.20;;;51.47;;
20150;SDS011;10236;49.638;6.830;2022-10-16T07:38:17;73.83;;;37.37;;
20150;SDS011;10236;49.638;6.830;2022-10-16T07:40:43;7.93;;;5.63;;
20150;SDS011;10236;49.638;6.830;2022-10-16T07:43:12;12.13;;;8.90;;
20150;SDS011;10236;49.638;6.830;2022-10-16T07:45:45;114.67;;;66.43;;
20150;SDS011;10236;49.638;6.830;2022-10-16T07:48:12;63.20;;;38.23;;
20150;SDS011;10236;49.638;6.830;2022-10-16T07:50:38;34.23;;;24.67;;
20150;SDS011;10236;49.638;6.830;2022-10-16T07:53:04;11.43;;;10.20;;
20150;SDS011;10236;49.638;6.830;2022-10-16T07:55:30;86.63;;;51.70;;
20150;SDS011;10236;49.638;6.830;2022-10-16T07:57:56;62.03;;;37.30;;
20150;SDS011;10236;49.638;6.830;2022-10-16T08:00:22;23.83;;;16.07;;
20150;SDS011;10236;49.638;6.830;2022-10-16T08:02:47;44.30;;;28.07;;
20150;SDS011;10236;49.638;6.830;2022-10-16T08:05:13;13.67;;;9.23;;
20150;SDS011;10236;49.638;6.830;2022-10-16T08:07:40;3.90;;;3.30;;
20150;SDS011;10236;49.638;6.830;2022-10-16T08:10:06;28.73;;;18.83;;
20150;SDS011;10236;49.638;6.830;2022-10-16T08:12:32;6.27;;;5.27;;
20150;SDS011;10236;49.638;6.830;2022-10-16T08:14:58;5.20;;;4.70;;
20150;SDS011;10236;49.638;6.830;2022-10-16T08:17:23;5.50;;;5.00;;
20150;SDS011;10236;49.638;6.830;2022-10-16T08:19:52;17.90;;;14.70;;
20150;SDS011;10236;49.638;6.830;2022-10-16T08:22:18;11.13;;;7.67;;
20150;SDS011;10236;49.638;6.830;2022-10-16T08:24:44;7.87;;;6.80;;
20150;SDS011;10236;49.638;6.830;2022-10-16T08:27:10;7.03;;;6.07;;
20150;SDS011;10236;49.638;6.830;2022-10-16T08:29:36;8.40;;;6.43;;
20150;SDS011;10236;49.638;6.830;2022-10-16T08:32:03;9.07;;;7.53;;
20150;SDS011;10236;49.638;6.830;2022-10-16T08:34:29;8.90;;;7.23;;
20150;SDS011;10236;49.638;6.830;2022-10-16T08:36:55;10.60;;;8.90;;
20150;SDS011;10236;49.638;6.830;2022-10-16T08:39:21;17.30;;;12.43;;
20150;SDS011;10236;49.638;6.830;2022-10-16T08:50:30;6.43;;;5.73;;
20150;SDS011;10236;49.638;6.830;2022-10-16T08:52:56;7.47;;;6.67;;
20150;SDS011;10236;49.638;6.830;2022-10-16T08:57:51;37.40;;;19.80;;
20150;SDS011;10236;49.638;6.830;2022-10-16T09:00:17;28.47;;;15.00;;
20150;SDS011;10236;49.638;6.830;2022-10-16T09:02:45;73.13;;;32.60;;
20150;SDS011;10236;49.638;6.830;2022-10-16T09:07:57;18.20;;;9.47;;
20150;SDS011;10236;49.638;6.830;2022-10-16T09:10:31;49.37;;;20.30;;
20150;SDS011;10236;49.638;6.830;2022-10-16T09:20:26;15.37;;;10.43;;
20150;SDS011;10236;49.638;6.830;2022-10-16T09:22:56;9.87;;;6.03;;
20150;SDS011;10236;49.638;6.830;2022-10-16T09:25:25;7.50;;;6.20;;
20150;SDS011;10236;49.638;6.830;2022-10-16T09:27:52;4.80;;;3.63;;
20150;SDS011;10236;49.638;6.830;2022-10-16T09:30:20;8.73;;;5.53;;
20150;SDS011;10236;49.638;6.830;2022-10-16T09:32:47;4.03;;;3.13;;
20150;SDS011;10236;49.638;6.830;2022-10-16T09:35:15;5.23;;;3.80;;
20150;SDS011;10236;49.638;6.830;2022-10-16T09:37:42;8.10;;;6.47;;
20150;SDS011;10236;49.638;6.830;2022-10-16T09:40:23;7.03;;;4.93;;
20150;SDS011;10236;49.638;6.830;2022-10-16T09:42:49;3.47;;;3.10;;
20150;SDS011;10236;49.638;6.830;2022-10-16T09:45:21;3.33;;;3.03;;
20150;SDS011;10236;49.638;6.830;2022-10-16T09:47:48;10.47;;;6.80;;
20150;SDS011;10236;49.638;6.830;2022-10-16T09:50:25;6.13;;;4.90;;
20150;SDS011;10236;49.638;6.830;2022-10-16T09:53:02;6.90;;;4.90;;
20150;SDS011;10236;49.638;6.830;2022-10-16T09:55:28;14.60;;;10.17;;
20150;SDS011;10236;49.638;6.830;2022-10-16T09:57:54;8.60;;;7.70;;
20150;SDS011;10236;49.638;6.830;2022-10-16T10:00:21;8.17;;;6.30;;
20150;SDS011;10236;49.638;6.830;2022-10-16T10:02:47;6.07;;;4.33;;
20150;SDS011;10236;49.638;6.830;2022-10-16T10:05:18;17.00;;;10.07;;
20150;SDS011;10236;49.638;6.830;2022-10-16T10:07:45;9.37;;;6.00;;
20150;SDS011;10236;49.638;6.830;2022-10-16T10:10:24;14.73;;;8.20;;
20150;SDS011;10236;49.638;6.830;2022-10-16T10:12:51;15.00;;;8.93;;
20150;SDS011;10236;49.638;6.830;2022-10-16T10:15:17;8.80;;;6.47;;
20150;SDS011;10236;49.638;6.830;2022-10-16T10:17:47;4.73;;;2.80;;
20150;SDS011;10236;49.638;6.830;2022-10-16T10:20:27;2.73;;;2.23;;
20150;SDS011;10236;49.638;6.830;2022-10-16T10:22:53;2.93;;;2.63;;
20150;SDS011;10236;49.638;6.830;2022-10-16T10:25:36;2.50;;;2.30;;
20150;SDS011;10236;49.638;6.830;2022-10-16T10:28:09;3.83;;;2.57;;
20150;SDS011;10236;49.638;6.830;2022-10-16T10:31:00;2.50;;;2.00;;
20150;SDS011;10236;49.638;6.830;2022-10-16T10:38:39;7.10;;;3.53;;
20150;SDS011;10236;49.638;6.830;2022-10-16T10:43:39;2.63;;;1.87;;
20150;SDS011;10236;49.638;6.830;2022-10-16T10:46:09;5.73;;;1.77;;
20150;SDS011;10236;49.638;6.830;2022-10-16T10:48:50;1.57;;;1.40;;
20150;SDS011;10236;49.638;6.830;2022-10-16T10:53:53;3.23;;;2.07;;
20150;SDS011;10236;49.638;6.830;2022-10-16T11:01:52;2.90;;;2.40;;
20150;SDS011;10236;49.638;6.830;2022-10-16T11:09:28;5.10;;;2.77;;
20150;SDS011;10236;49.638;6.830;2022-10-16T11:11:58;3.13;;;2.43;;
20150;SDS011;10236;49.638;6.830;2022-10-16T11:14:28;4.40;;;2.20;;
20150;SDS011;10236;49.638;6.830;2022-10-16T11:16:59;3.63;;;2.77;;
20150;SDS011;10236;49.638;6.830;2022-10-16T11:19:37;5.50;;;2.87;;
20150;SDS011;10236;49.638;6.830;2022-10-16T11:25:05;4.20;;;2.53;;
20150;SDS011;10236;49.638;6.830;2022-10-16T11:27:41;4.87;;;3.47;;
20150;SDS011;10236;49.638;6.830;2022-10-16T11:30:13;5.03;;;3.03;;
20150;SDS011;10236;49.638;6.830;2022-10-16T11:35:49;7.37;;;5.37;;
20150;SDS011;10236;49.638;6.830;2022-10-16T11:40:48;4.67;;;4.27;;
20150;SDS011;10236;49.638;6.830;2022-10-16T11:43:24;6.07;;;4.27;;
20150;SDS011;10236;49.638;6.830;2022-10-16T11:45:54;6.30;;;3.67;;
20150;SDS011;10236;49.638;6.830;2022-10-16T11:48:30;4.87;;;4.37;;
20150;SDS011;10236;49.638;6.830;2022-10-16T11:51:00;5.30;;;3.80;;
20150;SDS011;10236;49.638;6.830;2022-10-16T11:53:34;5.27;;;3.40;;
20150;SDS011;10236;49.638;6.830;2022-10-16T11:56:03;4.07;;;3.40;;
20150;SDS011;10236;49.638;6.830;2022-10-16T11:58:41;4.90;;;4.27;;
20150;SDS011;10236;49.638;6.830;2022-10-16T12:01:28;4.73;;;3.53;;
20150;SDS011;10236;49.638;6.830;2022-10-16T12:08:51;15.20;;;5.33;;
20150;SDS011;10236;49.638;6.830;2022-10-16T12:11:39;6.77;;;3.97;;
20150;SDS011;10236;49.638;6.830;2022-10-16T12:16:59;7.40;;;3.83;;
20150;SDS011;10236;49.638;6.830;2022-10-16T12:19:25;4.10;;;3.70;;
20150;SDS011;10236;49.638;6.830;2022-10-16T12:21:52;6.43;;;4.50;;
20150;SDS011;10236;49.638;6.830;2022-10-16T12:24:20;12.70;;;10.17;;
20150;SDS011;10236;49.638;6.830;2022-10-16T12:26:47;10.87;;;7.43;;
20150;SDS011;10236;49.638;6.830;2022-10-16T12:29:34;5.77;;;5.17;;
20150;SDS011;10236;49.638;6.830;2022-10-16T12:32:00;8.87;;;6.03;;
20150;SDS011;10236;49.638;6.830;2022-10-16T12:37:10;5.27;;;4.87;;
20150;SDS011;10236;49.638;6.830;2022-10-16T12:39:37;8.80;;;5.27;;
20150;SDS011;10236;49.638;6.830;2022-10-16T12:42:03;6.10;;;5.40;;
20150;SDS011;10236;49.638;6.830;2022-10-16T12:44:34;6.63;;;4.83;;
20150;SDS011;10236;49.638;6.830;2022-10-16T12:47:03;5.20;;;4.60;;
20150;SDS011;10236;49.638;6.830;2022-10-16T12:49:32;5.80;;;4.93;;
20150;SDS011;10236;49.638;6.830;2022-10-16T12:51:58;6.83;;;5.50;;
20150;SDS011;10236;49.638;6.830;2022-10-16T12:54:28;7.65;;;5.20;;
20150;SDS011;10236;49.638;6.830;2022-10-16T13:04:57;4.75;;;4.35;;
20150;SDS011;10236;49.638;6.830;2022-10-16T13:15:34;6.07;;;5.47;;
20150;SDS011;10236;49.638;6.830;2022-10-16T13:20:50;10.15;;;7.18;;
20150;SDS011;10236;49.638;6.830;2022-10-16T13:23:23;7.88;;;7.18;;
20150;SDS011;10236;49.638;6.830;2022-10-16T13:28:20;5.70;;;5.20;;
20150;SDS011;10236;49.638;6.830;2022-10-16T13:30:53;5.45;;;4.57;;
20150;SDS011;10236;49.638;6.830;2022-10-16T13:33:30;5.50;;;5.00;;
20150;SDS011;10236;49.638;6.830;2022-10-16T13:35:56;6.28;;;4.90;;
20150;SDS011;10236;49.638;6.830;2022-10-16T13:38:26;5.60;;;4.80;;
20150;SDS011;10236;49.638;6.830;2022-10-16T13:40:56;7.55;;;5.35;;
20150;SDS011;10236;49.638;6.830;2022-10-16T13:43:27;6.82;;;5.50;;
20150;SDS011;10236;49.638;6.830;2022-10-16T13:46:13;5.43;;;4.97;;
20150;SDS011;10236;49.638;6.830;2022-10-16T13:48:39;6.25;;;5.65;;
20150;SDS011;10236;49.638;6.830;2022-10-16T13:51:16;10.03;;;9.00;;
20150;SDS011;10236;49.638;6.830;2022-10-16T13:53:42;8.20;;;7.40;;
20150;SDS011;10236;49.638;6.830;2022-10-16T13:56:12;8.23;;;7.43;;
20150;SDS011;10236;49.638;6.830;2022-10-16T13:58:42;11.20;;;10.10;;
20150;SDS011;10236;49.638;6.830;2022-10-16T14:01:16;12.27;;;11.07;;
20150;SDS011;10236;49.638;6.830;2022-10-16T14:03:43;12.40;;;10.90;;
20150;SDS011;10236;49.638;6.830;2022-10-16T14:06:14;11.53;;;10.30;;
20150;SDS011;10236;49.638;6.830;2022-10-16T14:08:44;11.23;;;10.13;;
20150;SDS011;10236;49.638;6.830;2022-10-16T14:11:11;13.13;;;10.47;;
20150;SDS011;10236;49.638;6.830;2022-10-16T14:13:39;11.83;;;10.70;;
20150;SDS011;10236;49.638;6.830;2022-10-16T14:16:06;11.43;;;10.33;;
20150;SDS011;10236;49.638;6.830;2022-10-16T14:18:33;12.30;;;9.57;;
20150;SDS011;10236;49.638;6.830;2022-10-16T14:21:06;11.67;;;9.40;;
20150;SDS011;10236;49.638;6.830;2022-10-16T14:23:36;9.65;;;8.63;;
20150;SDS011;10236;49.638;6.830;2022-10-16T14:26:11;12.07;;;8.32;;
20150;SDS011;10236;49.638;6.830;2022-10-16T14:28:43;9.50;;;8.43;;
20150;SDS011;10236;49.638;6.830;2022-10-16T14:33:45;8.27;;;7.57;;
20150;SDS011;10236;49.638;6.830;2022-10-16T14:36:12;8.90;;;7.32;;
20150;SDS011;10236;49.638;6.830;2022-10-16T14:38:39;12.85;;;8.32;;
20150;SDS011;10236;49.638;6.830;2022-10-16T14:41:05;6.82;;;5.68;;
20150;SDS011;10236;49.638;6.830;2022-10-16T14:43:33;7.13;;;5.27;;
20150;SDS011;10236;49.638;6.830;2022-10-16T14:46:00;7.67;;;5.27;;
20150;SDS011;10236;49.638;6.830;2022-10-16T14:48:27;5.03;;;4.53;;
20150;SDS011;10236;49.638;6.830;2022-10-16T14:50:55;4.93;;;4.40;;
20150;SDS011;10236;49.638;6.830;2022-10-16T14:53:21;7.53;;;4.10;;
20150;SDS011;10236;49.638;6.830;2022-10-16T14:55:47;6.97;;;3.90;;
20150;SDS011;10236;49.638;6.830;2022-10-16T14:58:18;7.57;;;3.38;;
20150;SDS011;10236;49.638;6.830;2022-10-16T15:00:44;6.78;;;3.45;;
20150;SDS011;10236;49.638;6.830;2022-10-16T15:03:10;6.83;;;3.57;;
20150;SDS011;10236;49.638;6.830;2022-10-16T15:05:36;5.80;;;4.00;;
20150;SDS011;10236;49.638;6.830;2022-10-16T15:08:06;5.00;;;4.00;;
20150;SDS011;10236;49.638;6.830;2022-10-16T15:10:33;4.73;;;3.23;;
20150;SDS011;10236;49.638;6.830;2022-10-16T15:13:01;5.00;;;3.70;;
20150;SDS011;10236;49.638;6.830;2022-10-16T15:17:59;6.77;;;4.13;;
20150;SDS011;10236;49.638;6.830;2022-10-16T15:20:26;8.30;;;4.87;;
20150;SDS011;10236;49.638;6.830;2022-10-16T15:22:55;34.10;;;17.57;;
20150;SDS011;10236;49.638;6.830;2022-10-16T15:28:04;10.67;;;7.50;;
20150;SDS011;10236;49.638;6.830;2022-10-16T15:30:33;17.73;;;10.63;;
20150;SDS011;10236;49.638;6.830;2022-10-16T15:32:59;6.43;;;5.03;;
20150;SDS011;10236;49.638;6.830;2022-10-16T15:35:25;9.18;;;5.55;;
20150;SDS011;10236;49.638;6.830;2022-10-16T15:37:51;6.00;;;4.27;;
20150;SDS011;10236;49.638;6.830;2022-10-16T15:40:18;6.47;;;4.00;;
20150;SDS011;10236;49.638;6.830;2022-10-16T15:42:44;5.87;;;4.00;;
20150;SDS011;10236;49.638;6.830;2022-10-16T15:45:10;4.32;;;3.65;;
20150;SDS011;10236;49.638;6.830;2022-10-16T15:47:37;6.15;;;3.55;;
20150;SDS011;10236;49.638;6.830;2022-10-16T15:50:03;7.35;;;4.13;;
20150;SDS011;10236;49.638;6.830;2022-10-16T15:52:29;5.65;;;3.97;;
20150;SDS011;10236;49.638;6.830;2022-10-16T15:54:57;7.10;;;3.53;;
20150;SDS011;10236;49.638;6.830;2022-10-16T15:57:23;6.53;;;4.00;;
20150;SDS011;10236;49.638;6.830;2022-10-16T15:59:56;6.80;;;3.85;;
20150;SDS011;10236;49.638;6.830;2022-10-16T16:02:22;8.50;;;3.47;;
20150;SDS011;10236;49.638;6.830;2022-10-16T16:04:48;5.35;;;3.38;;
20150;SDS011;10236;49.638;6.830;2022-10-16T16:07:14;10.98;;;3.72;;
20150;SDS011;10236;49.638;6.830;2022-10-16T16:09:40;9.45;;;3.70;;
20150;SDS011;10236;49.638;6.830;2022-10-16T16:12:09;7.78;;;3.35;;
20150;SDS011;10236;49.638;6.830;2022-10-16T16:14:35;5.65;;;3.53;;
20150;SDS011;10236;49.638;6.830;2022-10-16T16:17:01;4.60;;;3.95;;
20150;SDS011;10236;49.638;6.830;2022-10-16T16:19:27;6.83;;;3.50;;
20150;SDS011;10236;49.638;6.830;2022-10-16T16:21:53;7.97;;;3.60;;
20150;SDS011;10236;49.638;6.830;2022-10-16T16:24:19;8.27;;;3.53;;
20150;SDS011;10236;49.638;6.830;2022-10-16T16:26:45;8.13;;;3.38;;
20150;SDS011;10236;49.638;6.830;2022-10-16T16:29:15;7.50;;;3.97;;
20150;SDS011;10236;49.638;6.830;2022-10-16T16:31:41;8.40;;;4.20;;
20150;SDS011;10236;49.638;6.830;2022-10-16T16:34:07;5.03;;;3.90;;